< < Back
Terminal Aerodrome Forecast


Current Version              Previous Versions:   1  2  3  4  5  6  7  8  9  

Terminal Aerodrome Forecast

024
FTUS44 KMRX 180528
TAFCHA
TAF
KCHA 180528Z 1806/1906 VRB03KT P6SM BKN060 BKN120
     FM181300 03007KT P6SM BKN050 OVC120
     FM190100 35005KT P6SM SCT060 OVC120=

Latest METAR

992
SAUS80 KWBC 190200 RRB
MTRCHA
METAR KCHA 190153Z 34003KT 10SM FEW065 SCT090 OVC200 14/07 A3016 RMK AO2
SLP212 T01440067


USA.gov is the U.S. government's official web portal to all federal, state and local government web resources and services.